createdAt,value
2023-12-05T00:01:33.491Z,5.07
2023-12-05T00:04:19.331Z,6.43
2023-12-05T00:07:05.310Z,12.48
2023-12-05T00:09:51.819Z,5.25
2023-12-05T00:12:37.331Z,7.80
2023-12-05T00:15:23.126Z,4.07
2023-12-05T00:18:10.444Z,6.50
2023-12-05T00:20:56.146Z,8.43
2023-12-05T00:23:41.465Z,14.52
2023-12-05T00:26:26.836Z,9.23
2023-12-05T00:29:12.358Z,3.22
2023-12-05T00:31:57.928Z,9.02
2023-12-05T00:34:49.677Z,8.95
2023-12-05T00:37:35.827Z,12.55
2023-12-05T00:40:21.377Z,5.03
2023-12-05T00:43:07.154Z,4.72
2023-12-05T00:45:52.961Z,5.70
2023-12-05T00:48:38.715Z,15.05
2023-12-05T00:51:24.552Z,6.53
2023-12-05T00:54:11.774Z,5.28
2023-12-05T00:56:58.570Z,6.70
2023-12-05T00:59:44.437Z,6.32
2023-12-05T01:02:30.498Z,6.88
2023-12-05T01:05:16.152Z,4.93
2023-12-05T01:08:02.151Z,6.45
2023-12-05T01:10:47.819Z,3.92
2023-12-05T01:13:33.258Z,7.38
2023-12-05T01:16:19.063Z,5.63
2023-12-05T01:19:04.619Z,3.65
2023-12-05T01:21:50.493Z,6.35
2023-12-05T01:24:36.011Z,5.53
2023-12-05T01:27:21.522Z,9.65
2023-12-05T01:30:07.811Z,8.55
2023-12-05T01:32:53.527Z,6.50
2023-12-05T01:35:38.932Z,5.10
2023-12-05T01:38:24.451Z,5.07
2023-12-05T01:41:09.872Z,6.82
2023-12-05T01:43:55.325Z,4.00
2023-12-05T01:46:40.969Z,14.25
2023-12-05T01:49:29.981Z,2.05
2023-12-05T01:52:17.544Z,4.88
2023-12-05T01:55:03.695Z,11.15
2023-12-05T01:57:49.919Z,4.28
2023-12-05T02:00:38.594Z,6.72
2023-12-05T02:03:24.386Z,5.25
2023-12-05T02:06:11.644Z,4.82
2023-12-05T02:08:58.958Z,13.30
2023-12-05T02:11:44.735Z,3.20
2023-12-05T02:14:30.490Z,4.07
2023-12-05T02:17:25.651Z,7.65
2023-12-05T02:20:34.750Z,6.03
2023-12-05T02:23:38.522Z,3.75
2023-12-05T02:26:30.418Z,2.90
2023-12-05T02:32:01.771Z,11.82
2023-12-05T02:34:48.197Z,4.60
2023-12-05T02:37:57.513Z,5.20
2023-12-05T02:41:03.419Z,6.88
2023-12-05T02:44:16.986Z,6.15
2023-12-05T02:47:03.597Z,4.70
2023-12-05T02:49:49.871Z,4.70
2023-12-05T02:52:39.880Z,5.30
2023-12-05T02:55:25.272Z,4.43
2023-12-05T02:58:10.901Z,4.88
2023-12-05T03:00:56.613Z,2.50
2023-12-05T03:03:43.019Z,5.57
2023-12-05T03:06:29.691Z,1.80
2023-12-05T03:09:15.588Z,4.05
2023-12-05T03:12:00.958Z,3.22
2023-12-05T03:14:46.583Z,3.75
2023-12-05T03:17:32.522Z,8.82
2023-12-05T03:20:18.976Z,3.70
2023-12-05T03:23:04.727Z,4.32
2023-12-05T03:25:50.140Z,5.65
2023-12-05T03:28:35.563Z,4.13
2023-12-05T03:31:21.137Z,3.42
2023-12-05T03:34:07.907Z,2.65
2023-12-05T03:36:53.394Z,3.80
2023-12-05T03:39:38.813Z,5.82
2023-12-05T03:42:24.276Z,4.40
2023-12-05T03:45:09.994Z,2.40
2023-12-05T03:47:55.847Z,5.60
2023-12-05T03:50:41.364Z,8.80
2023-12-05T03:53:26.772Z,6.97
2023-12-05T03:56:12.397Z,3.63
2023-12-05T03:58:58.072Z,3.10
2023-12-05T04:01:43.558Z,5.85
2023-12-05T04:04:29.083Z,4.95
2023-12-05T04:07:14.847Z,3.00
2023-12-05T04:10:00.345Z,2.38
2023-12-05T04:12:46.890Z,6.03
2023-12-05T04:15:32.387Z,1.55
2023-12-05T04:18:17.955Z,2.15
2023-12-05T04:21:03.978Z,1.77
2023-12-05T04:23:49.712Z,4.47
2023-12-05T04:26:35.148Z,3.58
2023-12-05T04:29:20.523Z,3.50
2023-12-05T04:32:06.285Z,4.68
2023-12-05T04:34:52.558Z,2.50
2023-12-05T04:37:41.131Z,2.58
2023-12-05T04:40:27.171Z,1.60
2023-12-05T04:43:12.749Z,7.70
2023-12-05T04:45:58.753Z,3.97
2023-12-05T04:48:44.590Z,1.35
2023-12-05T04:51:29.979Z,2.95
2023-12-05T04:54:15.534Z,2.05
2023-12-05T04:57:01.022Z,2.45
2023-12-05T04:59:46.653Z,3.42
2023-12-05T05:02:32.095Z,5.00
2023-12-05T05:05:17.584Z,6.32
2023-12-05T05:08:03.318Z,5.18
2023-12-05T05:10:48.800Z,3.63
2023-12-05T05:13:39.517Z,3.67
2023-12-05T05:16:31.070Z,3.60
2023-12-05T05:19:16.672Z,3.63
2023-12-05T05:22:02.672Z,3.13
2023-12-05T05:24:48.492Z,5.43
2023-12-05T05:27:34.380Z,2.67
2023-12-05T05:30:19.987Z,3.05
2023-12-05T05:33:05.454Z,1.85
2023-12-05T05:35:51.742Z,2.22
2023-12-05T05:38:37.184Z,6.32
2023-12-05T05:41:23.029Z,5.30
2023-12-05T05:44:08.846Z,1.70
2023-12-05T05:46:54.514Z,3.72
2023-12-05T05:49:41.073Z,2.00
2023-12-05T05:52:26.956Z,5.90
2023-12-05T05:55:12.565Z,3.25
2023-12-05T05:57:58.159Z,4.93
2023-12-05T06:00:45.815Z,2.63
2023-12-05T06:03:32.949Z,4.75
2023-12-05T06:06:19.025Z,1.75
2023-12-05T06:09:05.514Z,2.63
2023-12-05T06:11:51.495Z,5.40
2023-12-05T06:14:36.807Z,3.33
2023-12-05T06:17:22.333Z,5.88
2023-12-05T06:20:09.980Z,4.93
2023-12-05T06:22:55.360Z,3.60
2023-12-05T06:25:40.809Z,2.30
2023-12-05T06:28:26.269Z,4.25
2023-12-05T06:31:11.679Z,4.70
2023-12-05T06:33:57.280Z,2.08
2023-12-05T06:36:43.049Z,3.70
2023-12-05T06:39:28.838Z,2.60
2023-12-05T06:42:14.424Z,8.52
2023-12-05T06:44:59.812Z,2.88
2023-12-05T06:47:46.270Z,8.15
2023-12-05T06:50:31.635Z,3.20
2023-12-05T06:53:17.370Z,3.55
2023-12-05T06:56:03.393Z,4.38
2023-12-05T06:58:49.004Z,4.95
2023-12-05T07:01:35.274Z,2.80
2023-12-05T07:04:21.194Z,4.10
2023-12-05T07:07:07.452Z,5.63
2023-12-05T07:09:52.871Z,2.80
2023-12-05T07:12:38.436Z,5.20
2023-12-05T07:15:23.903Z,7.45
2023-12-05T07:18:10.346Z,3.85
2023-12-05T07:20:55.963Z,5.20
2023-12-05T07:23:44.255Z,6.90
2023-12-05T07:26:32.190Z,4.43
2023-12-05T07:29:17.925Z,3.95
2023-12-05T07:32:03.610Z,7.38
2023-12-05T07:34:51.292Z,2.78
2023-12-05T07:37:36.887Z,5.90
2023-12-05T07:40:22.612Z,7.70
2023-12-05T07:43:08.549Z,3.97
2023-12-05T07:45:54.086Z,4.10
2023-12-05T07:48:40.432Z,3.22
2023-12-05T07:51:27.018Z,4.53
2023-12-05T07:54:12.992Z,5.85
2023-12-05T07:56:58.518Z,5.18
2023-12-05T07:59:44.969Z,10.48
2023-12-05T08:02:30.644Z,3.28
2023-12-05T08:05:16.409Z,5.18
2023-12-05T08:08:02.328Z,7.80
2023-12-05T08:10:49.219Z,4.50
2023-12-05T08:13:34.740Z,3.80
2023-12-05T08:16:21.218Z,4.65
2023-12-05T08:19:06.915Z,12.30
2023-12-05T08:21:53.029Z,9.70
2023-12-05T08:24:38.816Z,6.32
2023-12-05T08:27:24.566Z,8.57
2023-12-05T08:30:10.594Z,5.13
2023-12-05T08:32:59.039Z,11.57
2023-12-05T08:35:45.254Z,10.40
2023-12-05T08:38:31.047Z,3.47
2023-12-05T08:41:22.887Z,6.65
2023-12-05T08:44:08.631Z,4.78
2023-12-05T08:46:54.115Z,9.38
2023-12-05T08:49:39.607Z,11.07
2023-12-05T08:52:24.946Z,11.98
2023-12-05T08:55:10.355Z,4.13
2023-12-05T08:57:56.830Z,5.13
2023-12-05T09:00:42.745Z,3.70
2023-12-05T09:03:28.801Z,5.82
2023-12-05T09:06:14.525Z,8.48
2023-12-05T09:09:00.158Z,16.40
2023-12-05T09:11:46.338Z,9.65
2023-12-05T09:14:31.874Z,4.65
2023-12-05T09:17:17.488Z,4.15
2023-12-05T09:20:03.015Z,6.95
2023-12-05T09:22:49.722Z,8.93
2023-12-05T09:25:36.381Z,5.15
2023-12-05T09:28:21.773Z,7.28
2023-12-05T09:31:07.344Z,10.75
2023-12-05T09:33:54.500Z,2.33
2023-12-05T09:36:39.922Z,8.57
2023-12-05T09:39:25.418Z,8.27
2023-12-05T09:42:15.002Z,14.98
2023-12-05T09:45:03.890Z,12.98
2023-12-05T09:47:54.018Z,12.77
2023-12-05T09:50:40.096Z,8.05
2023-12-05T09:53:28.008Z,8.30
2023-12-05T09:56:16.338Z,10.80
2023-12-05T09:59:02.727Z,8.00
2023-12-05T10:01:48.370Z,4.43
2023-12-05T10:04:43.060Z,11.23
2023-12-05T10:07:29.337Z,5.90
2023-12-05T10:10:16.551Z,9.75
2023-12-05T10:13:03.399Z,6.47
2023-12-05T10:15:49.171Z,10.25
2023-12-05T10:18:36.655Z,4.00
2023-12-05T10:21:22.320Z,6.57
2023-12-05T10:24:08.187Z,6.97
2023-12-05T10:26:54.630Z,3.40
2023-12-05T10:29:44.162Z,6.93
2023-12-05T10:32:30.032Z,8.07
2023-12-05T10:35:15.442Z,9.38
2023-12-05T10:38:06.296Z,8.95
2023-12-05T10:40:55.704Z,10.63
2023-12-05T10:43:50.461Z,15.98
2023-12-05T10:46:38.202Z,10.65
2023-12-05T10:49:24.027Z,8.13
2023-12-05T10:52:10.696Z,10.77
2023-12-05T10:54:57.935Z,6.72
2023-12-05T10:57:44.236Z,6.07
2023-12-05T11:00:30.991Z,5.93
2023-12-05T11:03:16.895Z,12.95
2023-12-05T11:06:03.718Z,7.10
2023-12-05T11:08:49.514Z,5.03
2023-12-05T11:11:36.753Z,9.38
2023-12-05T11:14:26.111Z,6.15
2023-12-05T11:17:18.377Z,10.95
2023-12-05T11:20:44.923Z,10.65
2023-12-05T11:23:31.522Z,4.65
2023-12-05T11:26:45.862Z,9.77
2023-12-05T11:30:05.248Z,11.98
2023-12-05T11:33:14.415Z,13.30
2023-12-05T11:36:30.188Z,6.78
2023-12-05T11:39:16.723Z,5.65
2023-12-05T11:42:15.387Z,11.10
2023-12-05T11:45:21.106Z,8.57
2023-12-05T11:48:09.902Z,5.47
2023-12-05T11:50:57.710Z,14.48
2023-12-05T11:53:43.539Z,12.23
2023-12-05T11:56:29.828Z,8.35
2023-12-05T11:59:15.400Z,9.45
2023-12-05T12:02:01.413Z,8.95
2023-12-05T12:04:47.479Z,5.32
2023-12-05T12:07:42.618Z,8.30
2023-12-05T12:10:28.264Z,8.48
2023-12-05T12:13:14.609Z,9.05
2023-12-05T12:16:01.672Z,8.32
2023-12-05T12:18:53.128Z,8.98
2023-12-05T12:21:40.595Z,12.35
2023-12-05T12:24:26.436Z,4.93
2023-12-05T12:27:12.973Z,5.78
2023-12-05T12:29:58.686Z,10.20
2023-12-05T12:32:54.916Z,4.78
2023-12-05T12:35:40.705Z,10.43
2023-12-05T12:38:26.421Z,9.65
2023-12-05T12:41:12.772Z,7.85
2023-12-05T12:43:58.284Z,11.80
2023-12-05T12:46:43.890Z,16.27
2023-12-05T12:49:29.677Z,14.90
2023-12-05T12:52:15.128Z,79.20
2023-12-05T12:55:01.538Z,34.63
2023-12-05T12:57:47.130Z,53.00
2023-12-05T13:00:41.397Z,64.35
2023-12-05T13:03:29.303Z,39.35
2023-12-05T13:06:15.392Z,32.13
2023-12-05T13:09:01.346Z,26.73
2023-12-05T13:11:48.135Z,23.23
2023-12-05T13:14:33.758Z,12.10
2023-12-05T13:17:19.650Z,27.58
2023-12-05T13:20:09.538Z,15.85
2023-12-05T13:22:56.490Z,12.32
2023-12-05T13:25:46.011Z,13.07
2023-12-05T13:28:32.413Z,15.00
2023-12-05T13:31:18.339Z,12.57
2023-12-05T13:34:04.716Z,13.27
2023-12-05T13:36:50.839Z,6.30
2023-12-05T13:39:36.827Z,4.13
2023-12-05T13:42:22.484Z,9.40
2023-12-05T13:45:08.472Z,14.50
2023-12-05T13:47:54.302Z,8.73
2023-12-05T13:50:39.738Z,6.97
2023-12-05T13:53:25.616Z,8.13
2023-12-05T13:56:11.838Z,11.60
2023-12-05T13:58:59.415Z,11.30
2023-12-05T14:01:45.329Z,11.77
2023-12-05T14:04:30.901Z,7.70
2023-12-05T14:07:16.731Z,8.07
2023-12-05T14:10:02.592Z,9.38
2023-12-05T14:12:48.422Z,12.80
2023-12-05T14:15:34.664Z,14.98
2023-12-05T14:18:20.563Z,16.20
2023-12-05T14:21:06.434Z,17.80
2023-12-05T14:23:52.262Z,13.70
2023-12-05T14:26:37.527Z,8.40
2023-12-05T14:29:23.162Z,19.05
2023-12-05T14:32:08.611Z,57.53
2023-12-05T14:34:54.249Z,54.60
2023-12-05T14:37:39.736Z,39.90
2023-12-05T14:40:25.345Z,15.85
2023-12-05T14:43:10.742Z,14.38
2023-12-05T14:45:57.351Z,9.23
2023-12-05T14:48:42.822Z,13.02
2023-12-05T14:51:28.284Z,21.23
2023-12-05T14:54:13.945Z,15.63
2023-12-05T14:57:00.641Z,32.28
2023-12-05T14:59:46.304Z,26.35
2023-12-05T15:02:31.991Z,18.60
2023-12-05T15:05:17.999Z,12.18
2023-12-05T15:08:06.977Z,14.55
2023-12-05T15:10:53.945Z,16.33
2023-12-05T15:13:39.592Z,14.32
2023-12-05T15:16:25.307Z,8.20
2023-12-05T15:19:11.988Z,11.07
2023-12-05T15:21:57.682Z,14.30
2023-12-05T15:24:43.190Z,21.63
2023-12-05T15:27:28.672Z,19.63
2023-12-05T15:30:14.451Z,17.85
2023-12-05T15:33:01.194Z,15.18
2023-12-05T15:35:46.841Z,22.65
2023-12-05T15:38:32.664Z,11.98
2023-12-05T15:41:18.222Z,16.40
2023-12-05T15:44:03.928Z,10.88
2023-12-05T15:46:49.605Z,16.38
2023-12-05T15:49:35.293Z,20.77
2023-12-05T15:52:20.746Z,17.17
2023-12-05T15:55:07.325Z,14.32
2023-12-05T15:57:53.286Z,11.32
2023-12-05T16:00:39.673Z,10.65
2023-12-05T16:03:25.051Z,18.00
2023-12-05T16:06:11.730Z,23.75
2023-12-05T16:08:57.501Z,19.85
2023-12-05T16:11:43.636Z,24.10
2023-12-05T16:14:32.142Z,16.50
2023-12-05T16:17:18.210Z,17.67
2023-12-05T16:20:04.443Z,18.23
2023-12-05T16:22:50.524Z,12.35
2023-12-05T16:25:36.446Z,23.90
2023-12-05T16:28:21.706Z,19.20
2023-12-05T16:31:07.871Z,15.77
2023-12-05T16:33:53.526Z,19.38
2023-12-05T16:36:39.572Z,20.08
2023-12-05T16:39:25.274Z,15.60
2023-12-05T16:42:10.644Z,18.40
2023-12-05T16:44:56.701Z,25.17
2023-12-05T16:47:42.544Z,14.55
2023-12-05T16:50:27.824Z,17.40
2023-12-05T16:53:13.382Z,30.30
2023-12-05T16:55:59.077Z,31.92
2023-12-05T16:58:44.603Z,35.78
2023-12-05T17:01:30.179Z,39.08
2023-12-05T17:04:16.188Z,45.28
2023-12-05T17:07:01.862Z,32.70
2023-12-05T17:09:47.783Z,37.88
2023-12-05T17:12:34.724Z,40.08
2023-12-05T17:15:20.120Z,37.97
2023-12-05T17:18:05.785Z,42.15
2023-12-05T17:20:51.333Z,40.10
2023-12-05T17:23:39.637Z,36.70
2023-12-05T17:26:25.449Z,23.95
2023-12-05T17:29:11.022Z,33.13
2023-12-05T17:31:56.426Z,35.30
2023-12-05T17:34:41.982Z,32.10
2023-12-05T17:37:32.190Z,36.38
2023-12-05T17:40:17.647Z,37.33
2023-12-05T17:43:03.267Z,35.03
2023-12-05T17:45:48.760Z,37.05
2023-12-05T17:48:34.313Z,33.00
2023-12-05T17:51:19.727Z,30.23
2023-12-05T17:54:05.979Z,29.80
2023-12-05T17:56:51.369Z,33.20
2023-12-05T17:59:37.075Z,34.67
2023-12-05T18:02:24.436Z,30.05
2023-12-05T18:05:10.157Z,31.05
2023-12-05T18:07:59.785Z,49.03
2023-12-05T18:10:46.891Z,40.53
2023-12-05T18:13:32.397Z,42.10
2023-12-05T18:16:19.202Z,65.07
2023-12-05T18:19:07.553Z,66.63
2023-12-05T18:21:53.146Z,54.33
2023-12-05T18:24:38.997Z,75.03
2023-12-05T18:27:24.850Z,66.70
2023-12-05T18:30:11.046Z,82.63
2023-12-05T18:32:59.237Z,65.32
2023-12-05T18:35:45.017Z,71.38
2023-12-05T18:38:30.464Z,61.97
2023-12-05T18:41:16.247Z,66.25
2023-12-05T18:44:02.031Z,89.38
2023-12-05T18:46:47.768Z,75.38
2023-12-05T18:49:33.339Z,85.82
2023-12-05T18:52:19.300Z,103.30
2023-12-05T18:55:07.101Z,74.25
2023-12-05T18:57:55.092Z,64.20
2023-12-05T19:00:41.456Z,78.88
2023-12-05T19:03:27.528Z,74.88
2023-12-05T19:06:13.283Z,75.10
2023-12-05T19:08:58.682Z,81.03
2023-12-05T19:11:44.299Z,74.30
2023-12-05T19:14:30.092Z,75.47
2023-12-05T19:17:17.451Z,65.70
2023-12-05T19:20:05.436Z,72.78
2023-12-05T19:22:50.862Z,74.78
2023-12-05T19:25:36.228Z,88.97
2023-12-05T19:28:21.732Z,79.43
2023-12-05T19:31:07.461Z,70.78
2023-12-05T19:33:53.157Z,72.88
2023-12-05T19:36:38.856Z,77.22
2023-12-05T19:39:24.477Z,65.32
2023-12-05T19:42:11.264Z,64.18
2023-12-05T19:44:56.608Z,88.20
2023-12-05T19:47:42.092Z,101.38
2023-12-05T19:50:27.595Z,82.10
2023-12-05T19:53:13.399Z,97.47
2023-12-05T19:55:59.994Z,107.20
2023-12-05T19:58:45.639Z,127.15
2023-12-05T20:01:31.268Z,118.53
2023-12-05T20:04:16.823Z,102.50
2023-12-05T20:07:02.689Z,96.75
2023-12-05T20:09:48.159Z,87.30
2023-12-05T20:12:33.675Z,100.88
2023-12-05T20:15:19.115Z,78.22
2023-12-05T20:18:04.694Z,103.90
2023-12-05T20:20:51.364Z,73.22
2023-12-05T20:23:37.305Z,63.35
2023-12-05T20:26:23.074Z,81.93
2023-12-05T20:29:08.746Z,71.57
2023-12-05T20:31:54.297Z,86.75
2023-12-05T20:34:41.588Z,69.72
2023-12-05T20:37:27.566Z,68.30
2023-12-05T20:40:13.398Z,76.03
2023-12-05T20:42:59.227Z,80.43
2023-12-05T20:45:45.137Z,70.82
2023-12-05T20:48:30.684Z,77.20
2023-12-05T20:51:16.611Z,72.88
2023-12-05T20:54:03.129Z,74.60
2023-12-05T20:56:48.723Z,67.80
2023-12-05T20:59:35.656Z,58.67
2023-12-05T21:02:24.288Z,55.80
2023-12-05T21:05:10.528Z,60.70
2023-12-05T21:07:55.902Z,57.28
2023-12-05T21:10:41.608Z,53.90
2023-12-05T21:13:27.411Z,63.85
2023-12-05T21:16:12.893Z,63.00
2023-12-05T21:18:58.554Z,66.63
2023-12-05T21:21:44.919Z,64.57
2023-12-05T21:24:33.360Z,65.43
2023-12-05T21:27:20.559Z,59.72
2023-12-05T21:30:07.275Z,81.13
2023-12-05T21:32:53.050Z,71.20
2023-12-05T21:35:38.416Z,68.75
2023-12-05T21:38:23.995Z,70.88
2023-12-05T21:41:10.230Z,71.07
2023-12-05T21:43:55.513Z,83.55
2023-12-05T21:46:41.098Z,85.55
2023-12-05T21:49:26.653Z,76.82
2023-12-05T21:52:12.701Z,78.25
2023-12-05T21:54:58.542Z,73.63
2023-12-05T21:57:44.361Z,81.60
2023-12-05T22:00:29.860Z,84.45
2023-12-05T22:03:15.833Z,72.88
2023-12-05T22:06:01.144Z,78.90
2023-12-05T22:08:46.686Z,75.90
2023-12-05T22:11:32.360Z,74.97
2023-12-05T22:14:18.784Z,69.30
2023-12-05T22:17:04.532Z,73.97
2023-12-05T22:19:50.297Z,68.88
2023-12-05T22:22:35.784Z,60.45
2023-12-05T22:25:21.642Z,62.67
2023-12-05T22:28:07.367Z,66.97
2023-12-05T22:30:53.033Z,67.15
2023-12-05T22:33:39.599Z,64.03
2023-12-05T22:36:25.783Z,71.35
2023-12-05T22:39:11.880Z,72.03
2023-12-05T22:41:57.350Z,70.68
2023-12-05T22:44:42.972Z,69.95
2023-12-05T22:47:28.741Z,77.18
2023-12-05T22:50:14.308Z,69.53
2023-12-05T22:53:00.307Z,72.45
2023-12-05T22:55:45.820Z,71.00
2023-12-05T22:58:31.695Z,86.18
2023-12-05T23:01:17.335Z,74.68
2023-12-05T23:04:03.208Z,76.45
2023-12-05T23:06:48.850Z,73.10
2023-12-05T23:09:34.500Z,71.00
2023-12-05T23:12:20.239Z,67.05
2023-12-05T23:15:06.554Z,72.55
2023-12-05T23:17:52.014Z,61.35
2023-12-05T23:20:37.330Z,71.80
2023-12-05T23:23:23.178Z,61.35
2023-12-05T23:26:09.360Z,73.80
2023-12-05T23:28:54.729Z,60.60
2023-12-05T23:31:40.135Z,60.13
2023-12-05T23:34:25.586Z,53.92
2023-12-05T23:37:11.150Z,57.83
2023-12-05T23:39:57.638Z,52.15
2023-12-05T23:42:43.292Z,59.60
2023-12-05T23:45:28.708Z,54.00
2023-12-05T23:48:15.318Z,57.10
2023-12-05T23:51:00.694Z,46.97
2023-12-05T23:53:46.558Z,50.28
2023-12-05T23:56:32.235Z,44.85
2023-12-05T23:59:18.273Z,49.33
